Time;durP1;ratioP1;P1;durP2;ratioP2;P2;SDS_P1;SDS_P2;PMS_P1;PMS_P2;Temp;Humidity;BMP_temperature;BMP_pressure;BME280_temperature;BME280_humidity;BME280_pressure;Samples;Min_cycle;Max_cycle;Signal;HPM_P1;HPM_P2
2022/11/04 00:00:15;;;;;;;2.03;1.40;;;13.50;93.50;;;13.95;61.67;97724.56;4931895;28;124172;-76
2022/11/04 00:02:41;;;;;;;1.83;1.33;;;13.50;93.50;;;13.95;61.63;97727.34;4933852;28;114060;-76
2022/11/04 00:05:08;;;;;;;5.73;1.50;;;13.50;93.50;;;13.95;61.87;97738.44;4931308;28;114193;-76
2022/11/04 00:12:23;;;;;;;1.67;1.30;;;13.60;93.60;;;13.97;61.81;97730.56;4932308;28;124431;-78
2022/11/04 00:13:06;;;;;;;2.00;1.33;;;13.60;93.90;;;13.98;61.58;97729.38;4931991;28;113859;-76
2022/11/04 00:18:21;;;;;;;1.50;1.20;;;13.60;93.50;;;13.96;61.75;97728.13;4972381;28;124642;-77
2022/11/04 00:29:21;;;;;;;2.13;1.10;;;13.50;93.40;;;13.85;61.87;97733.44;4973628;28;124791;-76
2022/11/04 00:34:33;;;;;;;2.07;1.23;;;13.50;93.50;;;13.81;61.82;97738.91;4972777;28;115091;-76
2022/11/04 00:37:01;;;;;;;1.50;1.20;;;13.50;93.50;;;13.81;62.00;97732.53;4972529;28;114091;-76
2022/11/04 00:39:29;;;;;;;1.53;1.20;;;13.50;93.60;;;13.81;61.94;97741.69;4972524;28;124050;-76
2022/11/04 00:41:55;;;;;;;1.43;1.20;;;13.50;93.60;;;13.81;61.92;97729.75;4969437;28;123689;-77
2022/11/04 00:44:21;;;;;;;1.40;1.23;;;13.40;93.60;;;13.79;61.95;97737.66;4969402;28;115038;-77
2022/11/04 00:46:48;;;;;;;1.77;1.50;;;13.40;93.60;;;13.77;61.93;97737.22;4969455;28;115089;-76
2022/11/04 00:49:15;;;;;;;1.57;1.10;;;13.50;93.70;;;13.75;61.84;97736.75;4969709;28;124030;-76
2022/11/04 00:51:41;;;;;;;1.60;1.40;;;13.40;93.60;;;13.70;61.92;97743.38;4968595;28;124643;-76
2022/11/04 00:54:08;;;;;;;1.83;1.30;;;13.30;93.60;;;13.67;61.96;97744.94;4972628;28;114268;-77
2022/11/04 00:56:39;;;;;;;1.87;1.20;;;13.30;93.60;;;13.63;62.37;97737.66;4969488;28;113845;-77
2022/11/04 00:59:06;;;;;;;1.10;1.00;;;13.30;93.60;;;13.59;61.99;97751.44;4969795;28;124517;-76
2022/11/04 01:01:33;;;;;;;2.50;1.20;;;13.20;93.60;;;13.56;62.21;97738.28;4970523;28;124259;-75
2022/11/04 01:03:59;;;;;;;1.77;1.20;;;13.30;93.70;;;13.54;62.16;97745.34;4968271;28;114032;-76
2022/11/04 01:06:27;;;;;;;1.97;1.40;;;13.20;93.70;;;13.52;62.18;97742.94;4968424;28;113698;-76
2022/11/04 01:09:03;;;;;;;1.73;1.30;;;13.20;93.70;;;13.50;62.06;97742.50;4969011;28;122549;-82
2022/11/04 01:11:30;;;;;;;1.53;1.30;;;13.10;93.60;;;13.47;62.04;97740.44;4969778;28;123853;-76
2022/11/04 01:13:57;;;;;;;1.30;1.20;;;13.10;93.60;;;13.46;62.16;97747.16;4969384;28;114962;-77
2022/11/04 01:16:25;;;;;;;1.40;1.30;;;13.20;93.70;;;13.43;62.17;97756.19;4967836;28;114106;-77
2022/11/04 01:18:52;;;;;;;1.30;1.20;;;13.10;93.70;;;13.40;62.03;97763.25;4968841;28;123141;-77
2022/11/04 01:21:19;;;;;;;1.33;1.10;;;13.10;93.60;;;13.38;62.22;97759.22;4968469;28;124129;-77
2022/11/04 01:23:46;;;;;;;2.03;1.30;;;13.00;93.60;;;13.37;61.99;97775.06;4968923;28;114276;-77
2022/11/04 01:26:16;;;;;;;1.93;1.30;;;13.40;93.80;;;13.34;62.17;97780.53;4969889;28;113930;-77
2022/11/04 01:28:43;;;;;;;1.20;1.10;;;13.00;93.60;;;13.34;62.11;97788.84;4968427;28;123849;-76
2022/11/04 01:31:22;;;;;;;1.67;1.30;;;13.80;93.90;;;13.35;62.12;97757.97;4967108;28;124092;-76
2022/11/04 01:33:51;;;;;;;1.30;1.20;;;13.00;93.60;;;13.36;61.97;97756.00;4967567;28;115191;-76
2022/11/04 01:36:19;;;;;;;1.60;1.20;;;13.00;93.60;;;13.34;62.26;97766.66;4970783;28;114968;-79
2022/11/04 01:38:46;;;;;;;1.40;1.07;;;13.00;93.70;;;13.35;62.50;97769.09;4971582;28;124524;-80
2022/11/04 01:41:21;;;;;;;12.80;2.20;;;13.00;93.70;;;13.37;62.52;97763.16;4960835;28;123744;-76
2022/11/04 01:43:49;;;;;;;1.60;1.20;;;13.20;93.80;;;13.39;62.36;97774.72;4963891;28;114130;-76
2022/11/04 01:46:42;;;;;;;2.07;1.50;;;13.00;93.80;;;13.38;62.28;97771.13;4970825;28;114640;-76
2022/11/04 01:49:30;;;;;;;1.93;1.40;;;13.10;93.80;;;13.37;62.08;97763.16;4971834;28;123992;-76
2022/11/04 01:52:06;;;;;;;1.57;1.17;;;13.00;93.80;;;13.35;62.32;97771.03;4969091;28;125138;-77
2022/11/04 01:54:34;;;;;;;1.20;1.10;;;13.00;93.80;;;13.36;62.41;97769.88;4968475;28;114029;-77
2022/11/04 01:57:05;;;;;;;1.47;1.10;;;13.00;93.80;;;13.36;62.17;97765.13;4963707;28;113999;-76
2022/11/04 01:59:38;;;;;;;1.60;1.40;;;13.00;93.80;;;13.37;62.46;97763.97;4967991;28;124318;-77
2022/11/04 02:02:05;;;;;;;1.30;1.20;;;13.00;93.80;;;13.39;62.48;97755.28;4968535;28;123746;-76
2022/11/04 02:04:31;;;;;;;1.13;1.03;;;13.00;93.80;;;13.41;62.63;97769.63;4968124;28;114309;-76
2022/11/04 02:07:08;;;;;;;1.87;1.20;;;13.00;93.80;;;13.40;62.35;97763.25;4970116;28;114566;-78
2022/11/04 02:09:37;;;;;;;1.20;1.10;;;13.00;93.80;;;13.38;62.45;97750.88;4970913;28;124336;-77
2022/11/04 02:14:51;;;;;;;1.40;1.20;;;13.00;93.80;;;13.38;62.21;97754.50;4971734;28;114475;-76
2022/11/04 02:17:17;;;;;;;1.30;1.10;;;13.10;93.90;;;13.39;62.30;97738.66;4968250;28;113855;-77
2022/11/04 02:20:41;;;;;;;1.10;0.97;;;13.00;93.80;;;13.34;62.25;97739.72;4968438;28;124411;-77
2022/11/04 02:23:31;;;;;;;1.30;1.03;;;13.00;93.70;;;13.32;62.17;97738.44;4963435;28;123842;-77
2022/11/04 02:26:13;;;;;;;2.50;1.10;;;13.00;93.70;;;13.31;62.31;97750.72;4966626;28;115175;-77
2022/11/04 02:29:00;;;;;;;1.57;1.20;;;12.90;93.60;;;13.30;62.10;97746.31;4966748;28;114605;-77
2022/11/04 02:31:57;;;;;;;1.10;1.00;;;12.90;93.70;;;13.26;61.87;97749.00;4954581;28;124465;-77
2022/11/04 02:34:41;;;;;;;1.20;1.10;;;12.90;93.60;;;13.23;61.95;97758.00;4963518;28;127260;-76
2022/11/04 02:37:29;;;;;;;1.73;1.27;;;12.90;93.50;;;13.23;61.73;97756.03;4979496;28;111333;-77
2022/11/04 02:40:15;;;;;;;1.57;1.20;;;12.90;93.50;;;13.21;61.55;97738.94;4968208;28;113711;-79
2022/11/04 02:42:54;;;;;;;1.37;1.00;;;12.90;93.40;;;13.22;61.41;97748.91;4956018;28;123984;-77
2022/11/04 02:45:27;;;;;;;1.50;1.00;;;12.80;93.30;;;13.21;61.00;97747.25;4968358;28;124172;-77
2022/11/04 02:48:02;;;;;;;1.50;1.20;;;12.80;93.20;;;13.21;61.20;97738.94;4974995;28;113239;-77
2022/11/04 02:50:46;;;;;;;1.67;1.00;;;12.90;93.10;;;13.21;61.00;97738.13;4966228;28;113570;-76
2022/11/04 02:53:33;;;;;;;2.50;1.10;;;12.90;93.10;;;13.22;61.01;97756.41;4970239;28;124716;-77
2022/11/04 02:56:02;;;;;;;2.53;1.30;;;12.80;93.00;;;13.23;60.86;97747.72;4974365;28;124464;-76
2022/11/04 02:58:36;;;;;;;2.60;1.00;;;12.80;93.00;;;13.28;60.89;97738.38;4968675;28;113927;-76
2022/11/04 03:01:06;;;;;;;1.30;0.90;;;12.90;93.00;;;13.31;60.78;97747.94;4966910;28;114060;-77
2022/11/04 03:03:45;;;;;;;1.20;1.03;;;12.90;93.00;;;13.33;60.34;97767.81;4981318;28;124046;-76
2022/11/04 03:06:16;;;;;;;1.67;1.07;;;12.90;92.90;;;13.34;60.36;97764.69;4966692;28;124314;-76
2022/11/04 03:08:48;;;;;;;1.50;1.00;;;12.90;92.80;;;13.38;60.10;97761.97;4967405;28;114333;-76
2022/11/04 03:11:18;;;;;;;2.30;1.10;;;13.00;92.80;;;13.42;59.97;97754.56;4967270;28;113843;-77
2022/11/04 03:13:53;;;;;;;1.77;1.13;;;13.00;92.70;;;13.46;59.62;97749.94;4969041;28;123227;-76
2022/11/04 03:16:34;;;;;;;2.10;1.10;;;13.00;92.60;;;13.48;59.62;97742.84;4967707;28;124088;-76
2022/11/04 03:19:15;;;;;;;1.90;0.87;;;13.00;92.50;;;13.51;59.31;97746.06;4965207;28;115648;-77
2022/11/04 03:22:16;;;;;;;1.30;1.10;;;13.00;92.40;;;13.51;59.12;97769.06;4967529;28;115036;-77
2022/11/04 03:24:46;;;;;;;1.30;0.90;;;13.10;92.30;;;13.50;59.02;97770.25;4957717;28;124087;-76
2022/11/04 03:27:24;;;;;;;1.47;0.90;;;13.10;92.20;;;13.50;58.73;97770.25;4965383;28;123889;-76
2022/11/04 03:30:08;;;;;;;1.20;0.90;;;13.10;92.10;;;13.50;58.71;97767.47;4969126;28;114384;-78
2022/11/04 03:32:58;;;;;;;1.40;1.00;;;13.00;92.00;;;13.51;58.46;97771.84;4967737;28;114058;-77
2022/11/04 03:35:26;;;;;;;2.03;1.10;;;13.10;92.00;;;13.51;58.72;97782.94;4966650;28;123749;-77
2022/11/04 03:37:53;;;;;;;1.20;1.00;;;13.10;92.00;;;13.55;58.69;97783.84;4968224;28;123597;-77
2022/11/04 03:40:21;;;;;;;1.10;1.00;;;13.10;92.00;;;13.57;58.39;97792.63;4968630;28;114604;-78
2022/11/04 03:42:56;;;;;;;1.87;1.10;;;13.20;92.00;;;13.60;58.52;97799.44;4966945;28;114070;-76
2022/11/04 03:45:23;;;;;;;1.40;1.10;;;13.30;92.00;;;13.60;58.43;97803.03;4964926;28;124833;-77
2022/11/04 03:47:50;;;;;;;4.00;1.00;;;13.10;91.80;;;13.62;58.30;97808.19;4966592;28;123758;-77
2022/11/04 03:50:27;;;;;;;3.20;0.97;;;13.10;91.80;;;13.64;58.18;97812.22;4968179;28;114641;-77
2022/11/04 03:52:54;;;;;;;2.03;1.00;;;13.40;91.90;;;13.64;58.38;97812.22;4969976;28;113895;-76
2022/11/04 03:55:30;;;;;;;1.50;1.00;;;13.20;91.80;;;13.65;58.17;97813.88;4974460;28;123504;-75
2022/11/04 03:58:09;;;;;;;1.30;0.87;;;13.20;91.80;;;13.64;57.94;97817.78;4967244;28;123915;-75
2022/11/04 04:00:48;;;;;;;1.90;1.13;;;13.20;91.70;;;13.64;58.11;97822.53;4954411;28;114205;-76
2022/11/04 04:03:31;;;;;;;1.20;0.90;;;13.20;91.70;;;13.64;57.88;97822.53;4968321;28;113808;-77
2022/11/04 04:06:19;;;;;;;1.67;1.27;;;13.20;91.60;;;13.61;57.95;97815.72;4966270;28;123836;-75
2022/11/04 04:08:52;;;;;;;1.20;1.00;;;13.20;91.60;;;13.60;57.91;97811.34;4965680;28;123408;-76
2022/11/04 04:11:38;;;;;;;1.60;1.30;;;13.30;91.60;;;13.59;57.87;97818.03;4965599;28;115123;-76
2022/11/04 04:15:01;;;;;;;1.10;0.90;;;13.10;91.50;;;13.58;57.84;97819.22;4966667;28;115107;-76
2022/11/04 04:17:39;;;;;;;1.10;1.00;;;13.10;91.50;;;13.56;57.96;97815.97;4966279;28;123995;-76
2022/11/04 04:20:13;;;;;;;1.20;1.00;;;13.10;91.50;;;13.56;57.91;97815.97;4966157;28;123878;-76
2022/11/04 04:22:48;;;;;;;1.10;1.00;;;13.20;91.50;;;13.56;57.94;97817.97;4966178;28;114023;-76
2022/11/04 04:28:03;;;;;;;0.90;0.80;;;13.10;91.50;;;13.51;57.84;97794.03;4967879;28;124555;-77
2022/11/04 04:30:30;;;;;;;1.27;0.97;;;13.10;91.50;;;13.52;58.00;97798.44;4967854;28;123677;-77
2022/11/04 04:33:08;;;;;;;1.30;1.10;;;13.10;91.50;;;13.51;57.86;97807.91;4970801;28;114577;-76
2022/11/04 04:35:53;;;;;;;1.40;1.00;;;13.10;91.40;;;13.49;57.73;97824.16;4973621;28;113965;-78
2022/11/04 04:47:19;;;;;;;1.17;1.00;;;13.00;91.50;;;13.37;58.26;97835.28;4959954;28;114911;-76
2022/11/04 04:49:54;;;;;;;2.60;1.00;;;13.00;91.50;;;13.36;58.20;97831.72;4968626;28;123974;-76
2022/11/04 04:52:23;;;;;;;1.00;0.90;;;12.90;91.60;;;13.31;58.46;97826.44;4970407;28;124296;-76
2022/11/04 04:54:49;;;;;;;1.50;1.10;;;12.90;91.60;;;13.33;58.45;97812.22;4955641;28;114168;-76
2022/11/04 04:57:16;;;;;;;3.70;1.50;;;12.90;91.60;;;13.32;58.53;97796.72;4971542;28;114114;-76
2022/11/04 04:59:42;;;;;;;2.03;1.07;;;13.20;91.80;;;13.33;58.43;97790.00;4969728;28;124667;-76
2022/11/04 05:02:09;;;;;;;2.27;1.30;;;12.90;91.70;;;13.32;58.43;97791.16;4970044;28;124380;-76
2022/11/04 05:04:37;;;;;;;1.47;1.30;;;12.90;91.60;;;13.31;58.39;97775.69;4970054;28;115188;-77
2022/11/04 05:07:05;;;;;;;1.63;1.20;;;12.80;91.60;;;13.31;58.38;97756.28;4968686;28;114859;-77
2022/11/04 05:09:32;;;;;;;1.60;1.20;;;12.90;91.90;;;13.29;58.28;97744.72;4969670;28;124123;-76
2022/11/04 05:11:58;;;;;;;1.27;1.00;;;12.80;91.50;;;13.30;58.30;97735.22;4968022;28;124425;-76
2022/11/04 05:14:25;;;;;;;1.50;1.10;;;12.90;91.60;;;13.30;57.95;97735.22;4969781;28;114312;-76
2022/11/04 05:16:51;;;;;;;1.50;0.90;;;12.90;91.60;;;13.29;58.00;97736.41;4970334;28;113935;-77
2022/11/04 05:19:18;;;;;;;4.83;1.20;;;12.80;91.50;;;13.28;57.94;97732.03;4972823;28;124251;-77
2022/11/04 05:21:44;;;;;;;2.30;1.40;;;12.80;91.40;;;13.29;57.92;97733.63;4956466;28;123933;-76
2022/11/04 05:24:11;;;;;;;3.20;1.30;;;12.80;91.40;;;13.28;57.76;97737.56;4985103;28;113860;-76
2022/11/04 05:26:37;;;;;;;1.87;1.20;;;12.80;91.40;;;13.25;57.77;97750.94;4964252;28;113269;-77
2022/11/04 05:29:04;;;;;;;1.60;0.90;;;12.80;91.30;;;13.24;57.98;97751.28;4966453;28;124049;-76
2022/11/04 05:31:31;;;;;;;5.00;1.00;;;12.80;91.30;;;13.24;57.66;97773.47;4970816;28;123862;-76
2022/11/04 05:33:58;;;;;;;3.13;1.10;;;12.80;91.30;;;13.22;57.74;97761.97;4970060;28;114239;-76
2022/11/04 05:36:25;;;;;;;2.30;1.30;;;12.80;91.30;;;13.22;57.69;97771.09;4971476;28;114072;-79
2022/11/04 05:38:54;;;;;;;1.90;1.20;;;13.20;91.50;;;13.22;57.91;97773.84;4970406;28;123312;-77
2022/11/04 05:41:27;;;;;;;1.30;1.00;;;12.80;91.30;;;13.22;58.08;97786.91;4964458;28;123709;-78
2022/11/04 05:43:58;;;;;;;1.23;1.00;;;12.70;91.30;;;13.22;57.95;97786.91;4967722;28;114614;-77
2022/11/04 05:46:26;;;;;;;1.57;1.20;;;12.70;91.30;;;13.21;58.01;97791.63;4955955;28;113597;-77
2022/11/04 05:48:53;;;;;;;1.93;1.17;;;12.70;91.30;;;13.20;58.02;97786.47;4969471;28;124207;-78
2022/11/04 05:51:24;;;;;;;1.30;1.20;;;12.70;91.30;;;13.19;57.63;97791.22;4968155;28;124016;-77
2022/11/04 05:53:51;;;;;;;1.50;1.33;;;12.70;91.30;;;13.18;57.83;97797.91;4970736;28;115144;-77
2022/11/04 05:56:17;;;;;;;2.00;1.37;;;12.90;91.40;;;13.17;57.79;97787.97;4970280;28;115045;-77
2022/11/04 05:58:44;;;;;;;3.43;1.40;;;12.70;91.30;;;13.15;57.56;97776.44;4958258;28;124282;-77
2022/11/04 06:01:34;;;;;;;1.60;1.10;;;12.70;91.20;;;13.13;57.48;97769.63;4969144;28;123918;-77
2022/11/04 06:04:04;;;;;;;1.70;1.10;;;12.70;91.20;;;13.09;57.53;97757.63;4955830;28;114258;-78
2022/11/04 06:06:34;;;;;;;1.50;1.20;;;12.60;91.10;;;13.08;57.83;97761.56;4967760;28;114247;-77
2022/11/04 06:09:02;;;;;;;2.30;1.07;;;12.60;91.10;;;13.04;58.01;97751.19;4969712;28;124501;-80
2022/11/04 06:11:29;;;;;;;4.07;1.33;;;12.60;91.20;;;13.00;57.70;97755.00;4968754;28;123992;-76
2022/11/04 06:13:57;;;;;;;3.50;1.30;;;12.60;91.20;;;12.96;57.91;97763.22;4968722;28;114560;-77
2022/11/04 06:16:25;;;;;;;2.70;1.23;;;12.60;91.20;;;12.96;57.90;97762.44;4969487;28;113985;-76
2022/11/04 06:18:52;;;;;;;1.60;1.00;;;12.50;91.20;;;12.92;58.08;97773.44;4968517;28;123774;-77
2022/11/04 06:21:29;;;;;;;1.97;1.23;;;12.50;91.10;;;12.90;57.87;97772.97;4970630;28;123958;-78
2022/11/04 06:23:57;;;;;;;2.90;1.13;;;12.50;91.20;;;12.88;58.05;97777.25;4972030;28;114302;-79
2022/11/04 06:26:26;;;;;;;2.80;1.13;;;12.50;91.20;;;12.88;58.22;97791.91;4971784;28;113794;-78
2022/11/04 06:28:52;;;;;;;1.37;0.90;;;12.50;91.30;;;12.90;58.22;97799.91;4973208;28;122899;-80
2022/11/04 06:31:22;;;;;;;1.30;1.07;;;12.50;91.30;;;12.89;58.00;97820.44;4967134;28;123791;-79
2022/11/04 06:33:49;;;;;;;2.40;1.30;;;12.50;91.30;;;12.90;57.98;97816.53;4954452;28;114095;-79
2022/11/04 06:36:16;;;;;;;1.33;1.20;;;12.40;91.20;;;12.92;57.95;97819.72;4971376;28;113905;-77
2022/11/04 06:38:43;;;;;;;2.73;1.47;;;12.50;91.30;;;12.94;57.93;97817.41;4969905;28;124443;-80
2022/11/04 06:41:16;;;;;;;3.10;1.30;;;12.50;91.30;;;12.97;57.72;97817.50;4986534;28;122623;-77
2022/11/04 06:43:43;;;;;;;2.10;1.37;;;12.50;91.50;;;12.97;57.81;97819.50;4968493;28;115180;-79
2022/11/04 06:46:38;;;;;;;2.27;1.30;;;12.50;91.30;;;12.97;57.72;97817.50;4984025;28;114130;-77
2022/11/04 06:49:09;;;;;;;3.43;1.20;;;12.50;91.30;;;12.96;57.71;97821.47;4968537;28;124021;-77
2022/11/04 06:51:35;;;;;;;2.00;1.50;;;12.50;91.20;;;12.94;57.67;97811.88;4969567;28;123117;-80
2022/11/04 06:54:02;;;;;;;1.77;1.33;;;12.50;91.20;;;12.92;57.98;97825.28;4968720;28;114405;-77
2022/11/04 06:56:29;;;;;;;1.80;1.50;;;12.50;91.20;;;12.92;57.91;97828.06;4968897;28;114080;-76
2022/11/04 06:58:56;;;;;;;2.80;1.30;;;12.50;91.20;;;12.92;58.22;97826.09;4968345;28;124131;-76
2022/11/04 07:01:26;;;;;;;2.60;1.33;;;12.50;91.30;;;12.92;58.14;97822.50;4986557;28;122769;-79
2022/11/04 07:03:56;;;;;;;2.80;1.20;;;12.50;91.30;;;12.90;58.42;97817.31;4978652;28;114287;-78
2022/11/04 07:06:23;;;;;;;3.50;1.50;;;12.40;91.30;;;12.91;58.22;97818.13;4961759;28;113269;-76
2022/11/04 07:08:51;;;;;;;1.27;1.10;;;12.50;91.40;;;12.91;58.29;97809.81;4965993;28;124061;-78
2022/11/04 07:11:20;;;;;;;2.33;1.30;;;12.40;91.40;;;12.90;58.33;97816.53;4967883;28;123877;-76
2022/11/04 07:13:48;;;;;;;2.33;1.30;;;12.40;91.50;;;12.91;58.54;97818.13;4967822;28;114884;-77
2022/11/04 07:16:15;;;;;;;1.80;1.50;;;12.50;91.50;;;12.88;58.60;97802.19;4969432;28;114854;-77
2022/11/04 07:18:42;;;;;;;3.00;1.50;;;12.40;91.50;;;12.87;58.55;97800.56;4965987;28;124333;-78
2022/11/04 07:21:10;;;;;;;1.30;1.20;;;12.30;91.50;;;12.86;58.47;97793.44;4967605;28;124566;-79
2022/11/04 07:23:36;;;;;;;4.20;1.47;;;12.40;91.60;;;12.85;59.02;97781.53;4966335;28;114399;-77
2022/11/04 07:26:07;;;;;;;1.90;1.33;;;12.40;91.70;;;12.85;58.78;97786.28;4968736;28;114349;-77
2022/11/04 07:28:34;;;;;;;1.63;1.40;;;12.40;91.70;;;12.83;58.83;97784.66;4966372;28;124182;-77
2022/11/04 07:31:03;;;;;;;2.10;1.57;;;12.40;91.70;;;12.84;58.95;97788.22;4967192;28;123946;-78
2022/11/04 07:33:31;;;;;;;3.53;1.73;;;12.40;91.80;;;12.86;59.06;97787.88;4983485;28;114761;-77
2022/11/04 07:35:58;;;;;;;2.37;1.30;;;12.40;91.80;;;12.90;58.96;97794.34;4968824;28;114977;-78
2022/11/04 07:38:24;;;;;;;3.07;1.40;;;12.40;91.80;;;12.90;58.97;97788.81;4972998;28;123625;-78
2022/11/04 07:40:51;;;;;;;1.63;1.30;;;12.80;92.00;;;12.89;59.13;97787.16;4977856;28;124202;-79
2022/11/04 07:43:17;;;;;;;6.83;1.53;;;12.40;91.80;;;12.91;59.06;97790.41;4962422;28;114330;-80
2022/11/04 07:45:44;;;;;;;1.77;1.40;;;12.40;91.90;;;12.93;59.17;97790.88;4969004;28;113012;-77
2022/11/04 07:48:11;;;;;;;1.60;1.20;;;12.40;91.90;;;12.93;59.02;97793.63;4967324;28;124172;-76
2022/11/04 07:50:39;;;;;;;2.50;1.40;;;12.50;91.90;;;12.93;58.92;97790.88;4967396;28;124908;-78
2022/11/04 07:53:06;;;;;;;3.73;1.30;;;12.50;91.90;;;12.91;59.00;97796.75;4966465;28;114126;-75
2022/11/04 07:55:32;;;;;;;2.47;1.67;;;12.50;91.90;;;12.89;58.75;97784.41;4968899;28;114344;-78
2022/11/04 07:57:59;;;;;;;1.77;1.10;;;12.40;91.80;;;12.87;58.91;97778.41;4965110;28;124070;-78
2022/11/04 08:00:25;;;;;;;3.37;1.57;;;12.40;91.80;;;12.83;59.00;97772.75;4953185;28;123791;-82
2022/11/04 08:02:52;;;;;;;4.20;1.57;;;12.30;91.80;;;12.79;59.08;97767.13;4967634;28;114257;-78
2022/11/04 08:05:18;;;;;;;2.90;1.70;;;12.30;91.80;;;12.76;59.26;97762.28;4967142;28;113998;-79
2022/11/04 08:07:45;;;;;;;4.23;1.60;;;12.30;91.90;;;12.76;59.34;97773.38;4966478;28;124236;-77
2022/11/04 08:10:11;;;;;;;3.57;1.83;;;12.30;91.90;;;12.71;59.23;97762.53;4968906;28;123421;-77
2022/11/04 08:12:37;;;;;;;4.50;1.60;;;12.30;91.90;;;12.69;59.33;97767.63;4966261;28;114419;-77
2022/11/04 08:15:05;;;;;;;2.57;1.53;;;12.40;91.90;;;12.69;59.51;97755.72;4969934;28;113883;-80
2022/11/04 08:17:31;;;;;;;2.13;1.50;;;12.30;91.90;;;12.70;59.33;97763.69;4971870;28;123458;-78
2022/11/04 08:19:58;;;;;;;2.23;1.50;;;12.30;91.90;;;12.72;59.21;97764.13;4969462;28;123664;-78
2022/11/04 08:22:24;;;;;;;3.50;1.37;;;12.30;91.90;;;12.77;59.16;97766.66;4969890;28;115801;-78
2022/11/04 08:24:51;;;;;;;1.40;1.10;;;12.30;92.00;;;12.80;59.15;97768.72;4969644;28;114938;-78
2022/11/04 08:27:17;;;;;;;2.70;1.60;;;12.30;91.90;;;12.85;59.21;97769.66;4969297;28;124079;-76
2022/11/04 08:29:44;;;;;;;1.60;1.37;;;12.40;91.90;;;12.87;58.91;97775.63;4969366;28;124388;-77
2022/11/04 08:32:10;;;;;;;3.77;1.17;;;12.40;91.90;;;12.89;58.90;97782.44;4970747;28;114289;-77
2022/11/04 08:34:37;;;;;;;1.80;1.30;;;12.40;91.90;;;12.94;59.26;97781.38;4968908;28;114473;-78
2022/11/04 08:37:03;;;;;;;3.07;1.37;;;12.50;91.90;;;12.99;58.86;97783.91;4972256;28;124514;-77
2022/11/04 08:39:30;;;;;;;1.60;1.30;;;12.50;91.90;;;13.02;58.88;97781.22;4976132;28;123727;-78
2022/11/04 08:41:56;;;;;;;2.23;1.40;;;12.50;91.90;;;13.08;58.69;97776.22;4971168;28;114343;-78
2022/11/04 08:44:23;;;;;;;1.97;1.40;;;12.60;91.90;;;13.13;58.18;97778.75;4964532;28;114054;-78
2022/11/04 08:46:49;;;;;;;2.23;1.50;;;12.60;91.80;;;13.19;58.31;97785.66;4978112;28;124054;-78
2022/11/04 08:49:16;;;;;;;2.10;1.30;;;12.60;91.80;;;13.24;58.23;97799.28;4964125;28;123286;-77
2022/11/04 08:51:46;;;;;;;2.40;1.50;;;12.80;91.80;;;13.28;58.03;97795.81;4984902;28;113316;-77
2022/11/04 08:54:12;;;;;;;2.50;1.57;;;12.70;91.70;;;13.33;57.96;97795.56;4993266;28;114512;-77
2022/11/04 08:56:39;;;;;;;2.97;1.33;;;12.70;91.60;;;13.37;57.91;97780.59;4968978;28;124089;-80
2022/11/04 08:59:07;;;;;;;1.83;1.30;;;12.80;91.60;;;13.42;57.70;97785.09;4969404;28;123974;-78
2022/11/04 09:01:35;;;;;;;3.53;1.47;;;12.80;91.50;;;13.45;57.46;97787.94;4970652;28;114364;-79
2022/11/04 09:04:04;;;;;;;3.60;1.50;;;12.80;91.40;;;13.50;57.52;97784.13;4983868;28;114223;-79
2022/11/04 09:06:37;;;;;;;4.73;1.40;;;12.90;91.40;;;13.55;57.18;97792.19;4968076;28;123971;-78
2022/11/04 09:09:08;;;;;;;2.70;1.30;;;13.00;91.40;;;13.58;57.11;97797.00;4968464;28;124044;-78
2022/11/04 09:11:39;;;;;;;3.30;1.43;;;13.00;91.30;;;13.60;56.88;97799.44;4967389;28;115192;-77
2022/11/04 09:14:06;;;;;;;3.87;1.70;;;13.00;91.20;;;13.61;56.74;97796.28;4964992;28;115511;-78
2022/11/04 09:16:35;;;;;;;2.70;1.27;;;13.10;91.10;;;13.64;56.71;97803.09;4969194;28;124244;-76
2022/11/04 09:19:02;;;;;;;1.53;1.20;;;13.10;91.00;;;13.65;56.55;97813.88;4969610;28;123687;-77
2022/11/04 09:21:29;;;;;;;2.70;1.60;;;13.10;90.90;;;13.67;56.38;97814.31;4968123;28;114203;-79
2022/11/04 09:23:55;;;;;;;2.43;1.10;;;13.10;90.80;;;13.69;56.35;97819.50;4971544;28;113532;-77
2022/11/04 09:26:23;;;;;;;4.10;1.43;;;13.20;90.80;;;13.72;56.18;97820.75;4969358;28;124407;-79
2022/11/04 09:28:57;;;;;;;2.20;1.30;;;13.20;90.70;;;13.74;55.99;97818.44;4968227;28;123955;-78
2022/11/04 09:31:29;;;;;;;1.53;1.20;;;13.20;90.60;;;13.73;55.86;97809.31;4967286;28;115568;-78
2022/11/04 09:33:56;;;;;;;4.47;1.40;;;13.20;90.60;;;13.76;56.02;97814.13;4971410;28;113116;-80
2022/11/04 09:36:23;;;;;;;3.23;1.70;;;13.30;90.50;;;13.77;55.58;97803.84;4982862;28;123896;-79
2022/11/04 09:38:50;;;;;;;1.80;1.40;;;13.10;90.30;;;13.79;55.11;97809.84;4964108;28;123789;-78
2022/11/04 09:41:27;;;;;;;1.80;1.27;;;13.30;90.20;;;13.79;55.03;97807.88;4970902;28;114232;-77
2022/11/04 09:44:26;;;;;;;3.70;1.50;;;13.30;90.10;;;13.80;54.83;97815.03;4969336;28;115448;-77
2022/11/04 09:47:00;;;;;;;2.33;1.07;;;13.30;90.00;;;13.80;54.19;97814.22;4958903;28;124217;-77
2022/11/04 09:49:35;;;;;;;2.50;1.37;;;13.30;89.20;;;13.81;54.21;97810.25;4967563;28;123725;-76
2022/11/04 09:52:28;;;;;;;2.73;1.20;;;12.40;88.30;;;13.82;54.03;97806.34;4958056;28;114554;-76
2022/11/04 09:55:06;;;;;;;2.60;1.30;;;13.40;89.00;;;13.84;53.90;97801.25;4972222;28;114191;-76
2022/11/04 09:57:32;;;;;;;2.70;1.00;;;13.30;88.70;;;13.87;53.99;97794.97;4966833;28;124575;-77
2022/11/04 09:59:59;;;;;;;2.73;1.10;;;13.40;88.80;;;13.90;53.87;97792.28;4968726;28;123825;-78
2022/11/04 10:02:35;;;;;;;2.53;1.20;;;13.40;88.70;;;13.97;53.53;97799.16;4968453;28;114563;-78
2022/11/04 10:05:13;;;;;;;6.57;1.30;;;13.40;88.20;;;14.01;53.27;97786.97;4969015;28;114956;-77
2022/11/04 10:07:43;;;;;;;3.10;1.40;;;13.50;88.40;;;14.08;53.06;97791.91;4968603;28;124957;-77
2022/11/04 10:10:30;;;;;;;3.13;1.23;;;13.50;88.70;;;14.13;52.95;97792.44;4967604;28;124410;-80
2022/11/04 10:13:35;;;;;;;2.50;1.53;;;13.60;87.80;;;14.16;52.51;97782.59;4967268;28;114417;-77
2022/11/04 10:16:29;;;;;;;2.70;1.40;;;13.60;86.90;;;14.18;52.37;97780.22;4956795;28;113627;-77
2022/11/04 10:19:20;;;;;;;2.80;1.37;;;13.60;87.10;;;14.23;52.38;97782.72;4968337;28;123927;-77
2022/11/04 10:22:33;;;;;;;2.30;1.40;;;13.70;87.10;;;14.29;52.25;97786.03;4967062;28;123853;-77
2022/11/04 10:25:20;;;;;;;1.50;1.10;;;13.70;86.90;;;14.36;52.23;97780.63;4964388;28;114127;-76
2022/11/04 10:27:49;;;;;;;2.00;1.30;;;13.80;87.00;;;14.43;52.02;97780.00;4954209;28;113458;-79
2022/11/04 10:30:22;;;;;;;3.90;1.30;;;13.80;86.80;;;14.50;51.99;97771.81;4950247;28;123957;-78
2022/11/04 10:32:58;;;;;;;3.67;1.40;;;13.90;87.10;;;14.57;51.51;97769.22;4968485;28;124917;-77
2022/11/04 10:35:50;;;;;;;3.10;1.73;;;14.00;86.40;;;14.63;51.38;97778.09;4968924;28;114377;-76
2022/11/04 10:38:40;;;;;;;2.70;1.30;;;14.10;86.10;;;14.67;51.13;97778.94;4960230;28;114563;-79
2022/11/04 10:41:34;;;;;;;2.93;1.60;;;14.10;85.90;;;14.71;51.24;97763.16;4952727;28;123020;-82
2022/11/04 10:44:03;;;;;;;2.47;1.60;;;14.20;85.80;;;14.79;51.14;97770.47;4968288;28;126355;-79
2022/11/04 10:47:02;;;;;;;3.10;1.60;;;14.20;85.80;;;14.85;50.65;97763.44;4968247;28;114342;-78
2022/11/04 10:49:56;;;;;;;2.27;1.10;;;14.30;85.50;;;14.86;50.72;97753.94;4940125;28;114006;-77
2022/11/04 10:52:23;;;;;;;3.07;1.10;;;14.30;85.10;;;14.89;50.51;97757.97;4966238;28;123771;-78
2022/11/04 10:54:50;;;;;;;2.83;1.93;;;14.40;85.10;;;14.92;50.48;97760.03;4985086;28;122699;-78
2022/11/04 10:57:23;;;;;;;5.07;1.50;;;14.40;84.90;;;14.93;50.10;97758.84;4970425;28;115312;-79
2022/11/04 10:59:59;;;;;;;1.97;1.30;;;14.50;84.60;;;14.94;50.10;97755.69;4968170;28;114972;-76
2022/11/04 11:02:45;;;;;;;1.60;1.00;;;15.20;85.20;;;14.95;50.33;97757.31;4967418;28;124257;-77
2022/11/04 11:05:18;;;;;;;1.97;1.30;;;14.40;84.50;;;14.98;50.11;97759.34;4966305;28;124300;-77